sensor_id;sensor_type;location;lat;lon;timestamp;P1;durP1;ratioP1;P2;durP2;ratioP2
1991;SDS011;997;48.448;8.924;2024-02-28T00:01:22;21.03;;;18.77;;
1991;SDS011;997;48.448;8.924;2024-02-28T00:03:48;26.10;;;18.20;;
1991;SDS011;997;48.448;8.924;2024-02-28T00:06:16;21.63;;;19.13;;
1991;SDS011;997;48.448;8.924;2024-02-28T00:08:42;21.80;;;17.70;;
1991;SDS011;997;48.448;8.924;2024-02-28T00:11:07;26.13;;;21.20;;
1991;SDS011;997;48.448;8.924;2024-02-28T00:13:33;24.17;;;19.67;;
1991;SDS011;997;48.448;8.924;2024-02-28T00:15:59;21.67;;;18.30;;
1991;SDS011;997;48.448;8.924;2024-02-28T00:18:25;23.83;;;18.20;;
1991;SDS011;997;48.448;8.924;2024-02-28T00:20:51;21.60;;;18.73;;
1991;SDS011;997;48.448;8.924;2024-02-28T00:23:17;25.27;;;19.33;;
1991;SDS011;997;48.448;8.924;2024-02-28T00:25:42;21.83;;;18.50;;
1991;SDS011;997;48.448;8.924;2024-02-28T00:28:08;25.40;;;21.13;;
1991;SDS011;997;48.448;8.924;2024-02-28T00:30:34;27.00;;;19.17;;
1991;SDS011;997;48.448;8.924;2024-02-28T00:33:00;21.90;;;18.60;;
1991;SDS011;997;48.448;8.924;2024-02-28T00:35:26;22.13;;;18.23;;
1991;SDS011;997;48.448;8.924;2024-02-28T00:37:54;20.60;;;18.50;;
1991;SDS011;997;48.448;8.924;2024-02-28T00:40:20;22.60;;;18.30;;
1991;SDS011;997;48.448;8.924;2024-02-28T00:42:45;21.83;;;17.60;;
1991;SDS011;997;48.448;8.924;2024-02-28T00:45:11;22.07;;;19.67;;
1991;SDS011;997;48.448;8.924;2024-02-28T00:47:37;23.37;;;19.43;;
1991;SDS011;997;48.448;8.924;2024-02-28T00:50:05;22.47;;;19.10;;
1991;SDS011;997;48.448;8.924;2024-02-28T00:52:31;21.27;;;19.00;;
1991;SDS011;997;48.448;8.924;2024-02-28T00:54:57;21.13;;;17.93;;
1991;SDS011;997;48.448;8.924;2024-02-28T00:57:23;25.40;;;19.53;;
1991;SDS011;997;48.448;8.924;2024-02-28T00:59:49;20.80;;;18.47;;
1991;SDS011;997;48.448;8.924;2024-02-28T01:02:14;20.50;;;17.10;;
1991;SDS011;997;48.448;8.924;2024-02-28T01:04:41;26.97;;;19.30;;
1991;SDS011;997;48.448;8.924;2024-02-28T01:07:07;22.93;;;18.50;;
1991;SDS011;997;48.448;8.924;2024-02-28T01:09:33;22.80;;;19.03;;
1991;SDS011;997;48.448;8.924;2024-02-28T01:11:58;22.83;;;17.80;;
1991;SDS011;997;48.448;8.924;2024-02-28T01:14:24;17.67;;;15.60;;
1991;SDS011;997;48.448;8.924;2024-02-28T01:16:50;18.70;;;16.77;;
1991;SDS011;997;48.448;8.924;2024-02-28T01:19:16;19.63;;;14.80;;
1991;SDS011;997;48.448;8.924;2024-02-28T01:21:41;16.90;;;15.20;;
1991;SDS011;997;48.448;8.924;2024-02-28T01:24:08;18.10;;;15.70;;
1991;SDS011;997;48.448;8.924;2024-02-28T01:26:33;20.70;;;16.30;;
1991;SDS011;997;48.448;8.924;2024-02-28T01:28:59;24.70;;;18.27;;
1991;SDS011;997;48.448;8.924;2024-02-28T01:31:25;22.30;;;17.50;;
1991;SDS011;997;48.448;8.924;2024-02-28T01:33:51;17.57;;;15.77;;
1991;SDS011;997;48.448;8.924;2024-02-28T01:36:17;18.80;;;16.90;;
1991;SDS011;997;48.448;8.924;2024-02-28T01:38:43;19.10;;;16.40;;
1991;SDS011;997;48.448;8.924;2024-02-28T01:41:08;22.77;;;16.97;;
1991;SDS011;997;48.448;8.924;2024-02-28T01:43:34;18.30;;;16.40;;
1991;SDS011;997;48.448;8.924;2024-02-28T01:46:00;23.00;;;17.57;;
1991;SDS011;997;48.448;8.924;2024-02-28T01:48:28;19.73;;;16.47;;
1991;SDS011;997;48.448;8.924;2024-02-28T01:50:55;19.53;;;16.33;;
1991;SDS011;997;48.448;8.924;2024-02-28T01:53:20;17.53;;;15.70;;
1991;SDS011;997;48.448;8.924;2024-02-28T01:55:47;17.70;;;16.00;;
1991;SDS011;997;48.448;8.924;2024-02-28T01:58:13;19.17;;;16.27;;
1991;SDS011;997;48.448;8.924;2024-02-28T02:00:38;18.57;;;14.77;;
1991;SDS011;997;48.448;8.924;2024-02-28T02:03:05;22.17;;;18.07;;
1991;SDS011;997;48.448;8.924;2024-02-28T02:05:30;18.63;;;14.83;;
1991;SDS011;997;48.448;8.924;2024-02-28T02:07:56;18.13;;;15.40;;
1991;SDS011;997;48.448;8.924;2024-02-28T02:10:23;17.43;;;15.53;;
1991;SDS011;997;48.448;8.924;2024-02-28T02:12:53;19.57;;;15.87;;
1991;SDS011;997;48.448;8.924;2024-02-28T02:15:19;17.33;;;15.53;;
1991;SDS011;997;48.448;8.924;2024-02-28T02:17:45;19.33;;;15.97;;
1991;SDS011;997;48.448;8.924;2024-02-28T02:20:11;21.27;;;16.90;;
1991;SDS011;997;48.448;8.924;2024-02-28T02:22:39;21.70;;;15.97;;
1991;SDS011;997;48.448;8.924;2024-02-28T02:25:06;20.50;;;17.23;;
1991;SDS011;997;48.448;8.924;2024-02-28T02:27:32;18.17;;;16.00;;
1991;SDS011;997;48.448;8.924;2024-02-28T02:29:57;19.53;;;17.53;;
1991;SDS011;997;48.448;8.924;2024-02-28T02:32:23;19.10;;;17.10;;
1991;SDS011;997;48.448;8.924;2024-02-28T02:34:49;19.50;;;17.57;;
1991;SDS011;997;48.448;8.924;2024-02-28T02:37:15;19.83;;;16.30;;
1991;SDS011;997;48.448;8.924;2024-02-28T02:39:40;19.90;;;17.80;;
1991;SDS011;997;48.448;8.924;2024-02-28T02:42:06;18.53;;;16.73;;
1991;SDS011;997;48.448;8.924;2024-02-28T02:44:33;20.70;;;17.20;;
1991;SDS011;997;48.448;8.924;2024-02-28T02:46:59;19.93;;;17.57;;
1991;SDS011;997;48.448;8.924;2024-02-28T02:49:25;17.63;;;15.83;;
1991;SDS011;997;48.448;8.924;2024-02-28T02:51:51;18.90;;;16.50;;
1991;SDS011;997;48.448;8.924;2024-02-28T02:54:16;15.33;;;13.70;;
1991;SDS011;997;48.448;8.924;2024-02-28T02:56:42;18.27;;;16.40;;
1991;SDS011;997;48.448;8.924;2024-02-28T02:59:12;18.27;;;15.27;;
1991;SDS011;997;48.448;8.924;2024-02-28T03:01:37;20.80;;;16.90;;
1991;SDS011;997;48.448;8.924;2024-02-28T03:04:03;17.23;;;15.53;;
1991;SDS011;997;48.448;8.924;2024-02-28T03:06:29;22.50;;;17.43;;
1991;SDS011;997;48.448;8.924;2024-02-28T03:08:55;18.30;;;16.40;;
1991;SDS011;997;48.448;8.924;2024-02-28T03:11:21;17.47;;;15.67;;
1991;SDS011;997;48.448;8.924;2024-02-28T03:13:46;15.87;;;14.27;;
1991;SDS011;997;48.448;8.924;2024-02-28T03:16:12;17.33;;;15.53;;
1991;SDS011;997;48.448;8.924;2024-02-28T03:18:37;16.90;;;14.17;;
1991;SDS011;997;48.448;8.924;2024-02-28T03:21:03;19.27;;;16.03;;
1991;SDS011;997;48.448;8.924;2024-02-28T03:23:29;22.07;;;19.67;;
1991;SDS011;997;48.448;8.924;2024-02-28T03:25:55;20.97;;;17.10;;
1991;SDS011;997;48.448;8.924;2024-02-28T03:28:20;20.07;;;17.97;;
1991;SDS011;997;48.448;8.924;2024-02-28T03:30:46;27.40;;;20.50;;
1991;SDS011;997;48.448;8.924;2024-02-28T03:33:12;23.27;;;19.30;;
1991;SDS011;997;48.448;8.924;2024-02-28T03:35:38;21.47;;;19.07;;
1991;SDS011;997;48.448;8.924;2024-02-28T03:38:04;26.63;;;19.90;;
1991;SDS011;997;48.448;8.924;2024-02-28T03:40:30;22.90;;;20.50;;
1991;SDS011;997;48.448;8.924;2024-02-28T03:42:56;22.27;;;19.87;;
1991;SDS011;997;48.448;8.924;2024-02-28T03:45:22;20.73;;;18.57;;
1991;SDS011;997;48.448;8.924;2024-02-28T03:47:48;22.40;;;20.13;;
1991;SDS011;997;48.448;8.924;2024-02-28T03:50:14;23.03;;;19.80;;
1991;SDS011;997;48.448;8.924;2024-02-28T03:52:40;20.83;;;17.53;;
1991;SDS011;997;48.448;8.924;2024-02-28T03:55:06;20.97;;;18.87;;
1991;SDS011;997;48.448;8.924;2024-02-28T03:57:31;22.90;;;19.30;;
1991;SDS011;997;48.448;8.924;2024-02-28T03:59:57;21.07;;;17.77;;
1991;SDS011;997;48.448;8.924;2024-02-28T04:02:23;28.80;;;24.00;;
1991;SDS011;997;48.448;8.924;2024-02-28T04:04:48;21.77;;;19.43;;
1991;SDS011;997;48.448;8.924;2024-02-28T04:07:14;23.50;;;20.67;;
1991;SDS011;997;48.448;8.924;2024-02-28T04:09:41;26.97;;;22.40;;
1991;SDS011;997;48.448;8.924;2024-02-28T04:12:06;20.60;;;18.37;;
1991;SDS011;997;48.448;8.924;2024-02-28T04:14:32;22.40;;;18.73;;
1991;SDS011;997;48.448;8.924;2024-02-28T04:16:58;22.20;;;19.33;;
1991;SDS011;997;48.448;8.924;2024-02-28T04:19:23;21.87;;;19.67;;
1991;SDS011;997;48.448;8.924;2024-02-28T04:21:49;24.83;;;22.13;;
1991;SDS011;997;48.448;8.924;2024-02-28T04:24:15;23.70;;;20.37;;
1991;SDS011;997;48.448;8.924;2024-02-28T04:26:41;24.93;;;19.27;;
1991;SDS011;997;48.448;8.924;2024-02-28T04:29:07;23.33;;;20.20;;
1991;SDS011;997;48.448;8.924;2024-02-28T04:31:38;23.67;;;21.00;;
1991;SDS011;997;48.448;8.924;2024-02-28T04:34:04;26.27;;;20.67;;
1991;SDS011;997;48.448;8.924;2024-02-28T04:36:30;21.43;;;18.17;;
1991;SDS011;997;48.448;8.924;2024-02-28T04:38:55;23.13;;;18.93;;
1991;SDS011;997;48.448;8.924;2024-02-28T04:41:21;23.40;;;18.90;;
1991;SDS011;997;48.448;8.924;2024-02-28T04:43:47;24.80;;;19.70;;
1991;SDS011;997;48.448;8.924;2024-02-28T04:46:13;22.97;;;18.90;;
1991;SDS011;997;48.448;8.924;2024-02-28T04:48:39;25.70;;;19.40;;
1991;SDS011;997;48.448;8.924;2024-02-28T04:51:04;23.80;;;18.83;;
1991;SDS011;997;48.448;8.924;2024-02-28T04:53:30;21.40;;;17.97;;
1991;SDS011;997;48.448;8.924;2024-02-28T04:55:56;21.23;;;17.17;;
1991;SDS011;997;48.448;8.924;2024-02-28T04:58:22;23.53;;;18.00;;
1991;SDS011;997;48.448;8.924;2024-02-28T05:00:47;21.30;;;18.43;;
1991;SDS011;997;48.448;8.924;2024-02-28T05:03:13;21.43;;;17.80;;
1991;SDS011;997;48.448;8.924;2024-02-28T05:05:39;21.67;;;19.10;;
1991;SDS011;997;48.448;8.924;2024-02-28T05:08:05;25.33;;;18.50;;
1991;SDS011;997;48.448;8.924;2024-02-28T05:10:30;21.40;;;18.40;;
1991;SDS011;997;48.448;8.924;2024-02-28T05:12:59;21.27;;;18.50;;
1991;SDS011;997;48.448;8.924;2024-02-28T05:15:25;21.37;;;19.07;;
1991;SDS011;997;48.448;8.924;2024-02-28T05:17:50;25.30;;;19.27;;
1991;SDS011;997;48.448;8.924;2024-02-28T05:20:17;26.53;;;21.63;;
1991;SDS011;997;48.448;8.924;2024-02-28T05:22:43;25.27;;;19.70;;
1991;SDS011;997;48.448;8.924;2024-02-28T05:25:09;21.33;;;18.93;;
1991;SDS011;997;48.448;8.924;2024-02-28T05:27:35;19.40;;;17.27;;
1991;SDS011;997;48.448;8.924;2024-02-28T05:30:01;24.47;;;19.13;;
1991;SDS011;997;48.448;8.924;2024-02-28T05:32:27;21.07;;;17.87;;
1991;SDS011;997;48.448;8.924;2024-02-28T05:34:52;21.93;;;17.87;;
1991;SDS011;997;48.448;8.924;2024-02-28T05:37:18;22.83;;;17.83;;
1991;SDS011;997;48.448;8.924;2024-02-28T05:39:44;24.50;;;19.10;;
1991;SDS011;997;48.448;8.924;2024-02-28T05:42:09;21.17;;;19.07;;
1991;SDS011;997;48.448;8.924;2024-02-28T05:44:35;21.80;;;18.50;;
1991;SDS011;997;48.448;8.924;2024-02-28T05:47:00;25.93;;;20.47;;
1991;SDS011;997;48.448;8.924;2024-02-28T05:49:26;26.70;;;21.30;;
1991;SDS011;997;48.448;8.924;2024-02-28T05:51:52;24.47;;;18.60;;
1991;SDS011;997;48.448;8.924;2024-02-28T05:54:19;25.10;;;21.00;;
1991;SDS011;997;48.448;8.924;2024-02-28T05:56:44;21.50;;;19.20;;
1991;SDS011;997;48.448;8.924;2024-02-28T05:59:10;22.73;;;19.10;;
1991;SDS011;997;48.448;8.924;2024-02-28T06:01:36;22.03;;;19.70;;
1991;SDS011;997;48.448;8.924;2024-02-28T06:04:03;21.60;;;17.40;;
1991;SDS011;997;48.448;8.924;2024-02-28T06:06:29;24.00;;;19.30;;
1991;SDS011;997;48.448;8.924;2024-02-28T06:08:55;21.23;;;18.70;;
1991;SDS011;997;48.448;8.924;2024-02-28T06:11:21;23.90;;;16.57;;
1991;SDS011;997;48.448;8.924;2024-02-28T06:13:47;25.47;;;17.87;;
1991;SDS011;997;48.448;8.924;2024-02-28T06:16:15;21.80;;;17.63;;
1991;SDS011;997;48.448;8.924;2024-02-28T06:18:43;19.13;;;17.00;;
1991;SDS011;997;48.448;8.924;2024-02-28T06:21:08;20.73;;;18.53;;
1991;SDS011;997;48.448;8.924;2024-02-28T06:23:34;21.50;;;17.40;;
1991;SDS011;997;48.448;8.924;2024-02-28T06:26:00;24.17;;;17.83;;
1991;SDS011;997;48.448;8.924;2024-02-28T06:28:25;19.90;;;16.80;;
1991;SDS011;997;48.448;8.924;2024-02-28T06:30:51;21.70;;;17.50;;
1991;SDS011;997;48.448;8.924;2024-02-28T06:33:17;21.90;;;18.60;;
1991;SDS011;997;48.448;8.924;2024-02-28T06:35:43;26.60;;;19.10;;
1991;SDS011;997;48.448;8.924;2024-02-28T06:38:09;21.37;;;16.47;;
1991;SDS011;997;48.448;8.924;2024-02-28T06:40:35;21.90;;;19.60;;
1991;SDS011;997;48.448;8.924;2024-02-28T06:43:01;23.73;;;18.70;;
1991;SDS011;997;48.448;8.924;2024-02-28T06:45:27;19.33;;;17.03;;
1991;SDS011;997;48.448;8.924;2024-02-28T06:47:53;19.03;;;17.13;;
1991;SDS011;997;48.448;8.924;2024-02-28T06:50:19;25.67;;;18.73;;
1991;SDS011;997;48.448;8.924;2024-02-28T06:52:45;19.53;;;17.30;;
1991;SDS011;997;48.448;8.924;2024-02-28T06:55:10;20.80;;;18.60;;
1991;SDS011;997;48.448;8.924;2024-02-28T06:57:40;19.83;;;17.53;;
1991;SDS011;997;48.448;8.924;2024-02-28T07:00:07;21.47;;;19.17;;
1991;SDS011;997;48.448;8.924;2024-02-28T07:02:35;20.93;;;17.20;;
1991;SDS011;997;48.448;8.924;2024-02-28T07:05:01;23.10;;;18.50;;
1991;SDS011;997;48.448;8.924;2024-02-28T07:07:29;23.10;;;18.83;;
1991;SDS011;997;48.448;8.924;2024-02-28T07:09:56;20.07;;;17.97;;
1991;SDS011;997;48.448;8.924;2024-02-28T07:12:22;20.60;;;17.93;;
1991;SDS011;997;48.448;8.924;2024-02-28T07:14:47;21.40;;;17.50;;
1991;SDS011;997;48.448;8.924;2024-02-28T07:17:13;23.97;;;19.47;;
1991;SDS011;997;48.448;8.924;2024-02-28T07:19:39;19.63;;;17.53;;
1991;SDS011;997;48.448;8.924;2024-02-28T07:22:05;19.40;;;17.30;;
1991;SDS011;997;48.448;8.924;2024-02-28T07:24:31;17.87;;;15.90;;
1991;SDS011;997;48.448;8.924;2024-02-28T07:26:57;18.93;;;16.77;;
1991;SDS011;997;48.448;8.924;2024-02-28T07:29:22;21.10;;;17.93;;
1991;SDS011;997;48.448;8.924;2024-02-28T07:31:51;20.13;;;17.90;;
1991;SDS011;997;48.448;8.924;2024-02-28T07:34:17;18.53;;;16.60;;
1991;SDS011;997;48.448;8.924;2024-02-28T07:36:42;20.07;;;16.60;;
1991;SDS011;997;48.448;8.924;2024-02-28T07:39:08;23.63;;;18.37;;
1991;SDS011;997;48.448;8.924;2024-02-28T07:41:38;18.57;;;16.53;;
1991;SDS011;997;48.448;8.924;2024-02-28T07:44:05;21.37;;;17.67;;
1991;SDS011;997;48.448;8.924;2024-02-28T07:46:32;25.47;;;16.60;;
1991;SDS011;997;48.448;8.924;2024-02-28T07:48:58;17.87;;;15.40;;
1991;SDS011;997;48.448;8.924;2024-02-28T07:51:25;17.87;;;16.03;;
1991;SDS011;997;48.448;8.924;2024-02-28T07:53:51;18.40;;;16.43;;
1991;SDS011;997;48.448;8.924;2024-02-28T07:56:18;20.33;;;17.70;;
1991;SDS011;997;48.448;8.924;2024-02-28T07:58:44;23.00;;;16.80;;
1991;SDS011;997;48.448;8.924;2024-02-28T08:01:10;18.60;;;16.60;;
1991;SDS011;997;48.448;8.924;2024-02-28T08:03:36;18.47;;;16.50;;
1991;SDS011;997;48.448;8.924;2024-02-28T08:06:03;20.00;;;18.00;;
1991;SDS011;997;48.448;8.924;2024-02-28T08:08:29;18.00;;;15.60;;
1991;SDS011;997;48.448;8.924;2024-02-28T08:10:55;17.03;;;14.40;;
1991;SDS011;997;48.448;8.924;2024-02-28T08:13:22;20.47;;;16.17;;
1991;SDS011;997;48.448;8.924;2024-02-28T08:15:47;20.17;;;16.43;;
1991;SDS011;997;48.448;8.924;2024-02-28T08:18:13;21.70;;;16.83;;
1991;SDS011;997;48.448;8.924;2024-02-28T08:20:39;17.83;;;15.10;;
1991;SDS011;997;48.448;8.924;2024-02-28T08:23:06;20.20;;;16.10;;
1991;SDS011;997;48.448;8.924;2024-02-28T08:25:32;18.67;;;14.13;;
1991;SDS011;997;48.448;8.924;2024-02-28T08:27:57;17.00;;;14.63;;
1991;SDS011;997;48.448;8.924;2024-02-28T08:30:24;17.00;;;15.10;;
1991;SDS011;997;48.448;8.924;2024-02-28T08:32:50;21.23;;;18.03;;
1991;SDS011;997;48.448;8.924;2024-02-28T08:35:17;18.30;;;16.17;;
1991;SDS011;997;48.448;8.924;2024-02-28T08:37:43;17.47;;;15.77;;
1991;SDS011;997;48.448;8.924;2024-02-28T08:40:09;18.70;;;16.80;;
1991;SDS011;997;48.448;8.924;2024-02-28T08:42:36;17.57;;;15.77;;
1991;SDS011;997;48.448;8.924;2024-02-28T08:45:02;16.13;;;13.80;;
1991;SDS011;997;48.448;8.924;2024-02-28T08:47:31;19.83;;;16.27;;
1991;SDS011;997;48.448;8.924;2024-02-28T08:49:57;19.23;;;17.10;;
1991;SDS011;997;48.448;8.924;2024-02-28T08:52:22;21.93;;;15.00;;
1991;SDS011;997;48.448;8.924;2024-02-28T08:54:48;18.90;;;16.27;;
1991;SDS011;997;48.448;8.924;2024-02-28T08:57:14;18.40;;;15.67;;
1991;SDS011;997;48.448;8.924;2024-02-28T08:59:40;18.50;;;15.93;;
